aviador You're here:

GMMD Decoded Metar

BENI-MELLAL in MOROCCO
Report Time2018-02-20 13:00:00
UTC Time2018-02-20 13:54:36
Flight Rules vfr VFR
Wind120° at 02 kt
W.Decomp.*RWY 05: 0.6 kt HW 1.9 kt RCW
W.Rank120° ranks 16
Current wind is below 120° avg. (6.4)
Visibility9999 m
Phenomena:N/A
Clouds:N/A
Expected CloudBase > 4,000 ft AGL from Temp-Dew spread
CeilingNone
Temp18°C (ISA +6)
Dew Point08°C (52% RH)
AAT16.8°C
QNH1013 hPa
Density Alt2,408 ft
Elevation1,548 ft
Report Wrong Elevation
Raw Report
METAR GMMD 201300Z 12002KT CAVOK 18/08 Q1013 NOSIG=

Extra information for GMMD:More info

Metar Taf Metar & Taf Last 4 Metars F.Rules Stats Wind Profile Meteogram Temp Stats Metar ALERT Operation Metar Decoded Social comments